createdAt,value
2019-05-07T00:01:04.514Z,11.28
2019-05-07T00:03:32.836Z,8.00
2019-05-07T00:06:02.787Z,8.85
2019-05-07T00:08:32.209Z,11.43
2019-05-07T00:11:02.299Z,9.78
2019-05-07T00:13:29.963Z,9.55
2019-05-07T00:15:58.292Z,7.00
2019-05-07T00:18:26.679Z,8.80
2019-05-07T00:20:54.530Z,7.00
2019-05-07T00:23:23.294Z,11.07
2019-05-07T00:25:52.953Z,8.53
2019-05-07T00:28:23.000Z,9.27
2019-05-07T00:30:52.135Z,10.00
2019-05-07T00:33:22.558Z,10.78
2019-05-07T00:35:57.088Z,10.63
2019-05-07T00:38:26.927Z,12.10
2019-05-07T00:41:14.203Z,8.85
2019-05-07T00:43:44.024Z,10.33
2019-05-07T00:46:17.970Z,7.90
2019-05-07T00:48:46.058Z,8.20
2019-05-07T00:51:30.496Z,8.78
2019-05-07T00:53:59.851Z,7.08
2019-05-07T00:56:27.814Z,9.88
2019-05-07T00:58:55.780Z,9.23
2019-05-07T01:01:23.611Z,8.93
2019-05-07T01:03:53.368Z,9.73
2019-05-07T01:06:22.724Z,12.73
2019-05-07T01:08:52.529Z,10.95
2019-05-07T01:11:22.633Z,11.23
2019-05-07T01:13:52.051Z,9.00
2019-05-07T01:16:22.189Z,10.40
2019-05-07T01:18:50.166Z,10.48
2019-05-07T01:21:32.249Z,11.90
2019-05-07T01:24:00.030Z,11.53
2019-05-07T01:26:27.815Z,8.98
2019-05-07T01:28:59.136Z,10.98
2019-05-07T01:31:30.136Z,8.23
2019-05-07T01:34:05.280Z,9.75
2019-05-07T01:36:33.068Z,12.28
2019-05-07T01:39:02.652Z,8.50
2019-05-07T01:41:32.560Z,8.63
2019-05-07T01:44:02.064Z,8.73
2019-05-07T01:46:29.949Z,10.10
2019-05-07T01:48:57.689Z,11.17
2019-05-07T01:51:25.557Z,10.35
2019-05-07T01:53:53.390Z,12.05
2019-05-07T01:56:22.961Z,13.45
2019-05-07T01:58:52.790Z,11.75
2019-05-07T02:01:22.167Z,13.40
2019-05-07T02:03:58.040Z,12.63
2019-05-07T02:06:44.286Z,9.90
2019-05-07T02:09:22.138Z,10.55
2019-05-07T02:12:09.492Z,12.10
2019-05-07T02:14:37.235Z,11.65
2019-05-07T02:17:05.130Z,10.43
2019-05-07T02:19:33.152Z,10.25
2019-05-07T02:22:02.806Z,9.00
2019-05-07T02:24:30.802Z,10.68
2019-05-07T02:26:58.627Z,16.02
2019-05-07T02:29:26.350Z,12.10
2019-05-07T02:31:54.176Z,10.65
2019-05-07T02:34:23.434Z,11.83
2019-05-07T02:36:53.946Z,12.28
2019-05-07T02:39:37.791Z,11.65
2019-05-07T02:42:05.620Z,12.03
2019-05-07T02:44:37.843Z,13.10
2019-05-07T02:47:16.635Z,11.83
2019-05-07T02:49:53.373Z,10.18
2019-05-07T02:52:28.656Z,11.55
2019-05-07T02:55:03.966Z,10.05
2019-05-07T02:57:33.912Z,8.50
2019-05-07T03:00:04.522Z,16.52
2019-05-07T03:02:33.197Z,13.15
2019-05-07T03:05:04.843Z,14.43
2019-05-07T03:07:33.463Z,11.43
2019-05-07T03:10:03.532Z,11.50
2019-05-07T03:12:33.389Z,11.73
2019-05-07T03:15:04.132Z,17.00
2019-05-07T03:17:33.416Z,12.18
2019-05-07T03:20:03.285Z,10.80
2019-05-07T03:22:33.811Z,10.32
2019-05-07T03:25:23.133Z,14.60
2019-05-07T03:27:53.500Z,11.63
2019-05-07T03:30:35.416Z,13.85
2019-05-07T03:33:07.630Z,11.22
2019-05-07T03:35:39.144Z,11.60
2019-05-07T03:38:07.047Z,9.80
2019-05-07T03:40:35.922Z,11.25
2019-05-07T03:43:06.099Z,14.23
2019-05-07T03:45:48.650Z,12.50
2019-05-07T03:48:18.829Z,11.70
2019-05-07T03:50:46.750Z,9.15
2019-05-07T03:53:14.687Z,14.55
2019-05-07T03:55:44.604Z,13.20
2019-05-07T03:58:14.552Z,10.50
2019-05-07T04:00:44.296Z,12.55
2019-05-07T04:03:13.458Z,9.78
2019-05-07T04:05:43.352Z,10.95
2019-05-07T04:08:13.130Z,14.30
2019-05-07T04:10:43.814Z,12.58
2019-05-07T04:13:13.339Z,11.05
2019-05-07T04:15:43.817Z,14.55
2019-05-07T04:18:13.117Z,16.40
2019-05-07T04:20:43.446Z,13.78
2019-05-07T04:23:13.469Z,13.93
2019-05-07T04:25:58.301Z,12.78
2019-05-07T04:28:35.592Z,11.35
2019-05-07T04:31:03.772Z,11.70
2019-05-07T04:33:38.168Z,10.38
2019-05-07T04:36:14.295Z,9.35
2019-05-07T04:38:44.048Z,11.18
2019-05-07T04:41:13.882Z,11.75
2019-05-07T04:43:43.484Z,11.22
2019-05-07T04:46:14.367Z,9.63
2019-05-07T04:48:43.947Z,9.80
2019-05-07T04:51:14.040Z,9.63
2019-05-07T04:53:42.904Z,7.97
2019-05-07T04:56:13.840Z,10.72
2019-05-07T04:58:43.495Z,11.08
2019-05-07T05:01:13.967Z,8.70
2019-05-07T05:03:43.651Z,9.48
2019-05-07T05:06:13.596Z,9.15
2019-05-07T05:08:43.564Z,11.12
2019-05-07T05:11:12.757Z,15.48
2019-05-07T05:13:44.019Z,11.00
2019-05-07T05:16:23.751Z,9.88
2019-05-07T05:18:52.259Z,11.80
2019-05-07T05:21:37.984Z,9.30
2019-05-07T05:24:19.516Z,7.35
2019-05-07T05:26:47.270Z,10.95
2019-05-07T05:29:17.804Z,6.92
2019-05-07T05:31:45.881Z,5.80
2019-05-07T05:34:13.735Z,9.63
2019-05-07T05:36:42.460Z,9.55
2019-05-07T05:39:12.943Z,9.68
2019-05-07T05:41:42.521Z,8.95
2019-05-07T05:44:24.337Z,8.28
2019-05-07T05:46:52.560Z,7.62
2019-05-07T05:49:22.786Z,7.55
2019-05-07T05:51:57.302Z,7.20
2019-05-07T05:54:33.414Z,9.05
2019-05-07T05:57:13.207Z,7.20
2019-05-07T06:00:14.749Z,11.27
2019-05-07T06:03:07.648Z,6.90
2019-05-07T06:06:01.973Z,7.33
2019-05-07T06:08:43.293Z,7.03
2019-05-07T06:11:39.239Z,8.67
2019-05-07T06:14:26.427Z,6.53
2019-05-07T06:17:16.746Z,7.42
2019-05-07T06:20:03.055Z,8.03
2019-05-07T06:22:52.897Z,5.05
2019-05-07T06:25:24.644Z,7.07
2019-05-07T06:27:52.597Z,6.33
2019-05-07T06:30:22.714Z,14.90
2019-05-07T06:32:52.245Z,6.50
2019-05-07T06:35:20.294Z,7.87
2019-05-07T06:37:48.084Z,8.03
2019-05-07T06:40:34.515Z,7.93
2019-05-07T06:43:15.297Z,11.57
2019-05-07T06:45:47.609Z,4.90
2019-05-07T06:48:15.582Z,5.23
2019-05-07T06:50:56.136Z,7.07
2019-05-07T06:53:27.973Z,5.12
2019-05-07T06:55:56.456Z,5.27
2019-05-07T06:58:26.775Z,6.80
2019-05-07T07:01:12.113Z,6.00
2019-05-07T07:03:58.794Z,9.37
2019-05-07T07:06:29.602Z,6.80
2019-05-07T07:09:05.020Z,6.47
2019-05-07T07:11:52.792Z,7.27
2019-05-07T07:14:22.589Z,8.20
2019-05-07T07:16:49.992Z,7.83
2019-05-07T07:19:17.968Z,7.63
2019-05-07T07:21:45.793Z,7.97
2019-05-07T07:24:13.574Z,6.83
2019-05-07T07:26:42.254Z,7.53
2019-05-07T07:29:12.732Z,7.63
2019-05-07T07:31:52.793Z,9.27
2019-05-07T07:34:22.741Z,9.67
2019-05-07T07:37:15.817Z,5.57
2019-05-07T07:39:43.897Z,6.30
2019-05-07T07:42:12.664Z,5.13
2019-05-07T07:44:42.563Z,6.13
2019-05-07T07:47:10.143Z,5.80
2019-05-07T07:49:38.095Z,7.97
2019-05-07T07:52:05.963Z,6.93
2019-05-07T07:54:33.740Z,11.70
2019-05-07T07:57:33.168Z,6.43
2019-05-07T08:00:15.272Z,4.73
2019-05-07T08:02:46.487Z,7.90
2019-05-07T08:05:14.515Z,6.67
2019-05-07T08:07:42.691Z,7.70
2019-05-07T08:10:12.885Z,6.47
2019-05-07T08:12:42.180Z,9.27
2019-05-07T08:15:18.126Z,7.00
2019-05-07T08:17:41.895Z,10.37
2019-05-07T08:20:12.662Z,8.80
2019-05-07T08:22:42.323Z,7.33
2019-05-07T08:25:12.514Z,6.40
2019-05-07T08:27:41.971Z,8.97
2019-05-07T08:30:13.975Z,8.00
2019-05-07T08:33:14.815Z,9.07
2019-05-07T08:36:07.684Z,6.70
2019-05-07T08:38:49.097Z,7.83
2019-05-07T08:41:17.337Z,6.30
2019-05-07T08:43:45.141Z,8.60
2019-05-07T08:46:35.057Z,9.30
2019-05-07T08:49:02.979Z,6.10
2019-05-07T08:51:32.596Z,12.87
2019-05-07T08:54:06.445Z,7.47
2019-05-07T08:56:35.660Z,6.67
2019-05-07T08:59:04.250Z,7.03
2019-05-07T09:01:32.645Z,6.43
2019-05-07T09:04:02.485Z,6.67
2019-05-07T09:06:45.163Z,6.73
2019-05-07T09:09:13.114Z,7.27
2019-05-07T09:11:42.597Z,9.20
2019-05-07T09:14:12.600Z,7.67
2019-05-07T09:16:42.641Z,9.13
2019-05-07T09:19:12.602Z,8.03
2019-05-07T09:21:42.608Z,8.07
2019-05-07T09:24:12.163Z,8.97
2019-05-07T09:26:48.933Z,7.47
2019-05-07T09:29:28.605Z,6.23
2019-05-07T09:32:18.406Z,6.70
2019-05-07T09:34:47.062Z,8.23
2019-05-07T09:37:18.869Z,9.90
2019-05-07T09:39:46.797Z,6.17
2019-05-07T09:42:14.702Z,7.33
2019-05-07T09:44:42.563Z,7.43
2019-05-07T09:47:12.778Z,8.07
2019-05-07T09:49:41.929Z,6.67
2019-05-07T09:52:12.138Z,8.60
2019-05-07T09:54:39.576Z,7.77
2019-05-07T09:57:22.743Z,7.37
2019-05-07T09:59:37.367Z,7.00
2019-05-07T10:02:05.403Z,6.60
2019-05-07T10:04:33.426Z,9.90
2019-05-07T10:07:02.605Z,11.43
2019-05-07T10:09:32.862Z,9.03
2019-05-07T10:12:12.052Z,8.10
2019-05-07T10:14:41.950Z,6.20
2019-05-07T10:17:15.720Z,6.77
2019-05-07T10:19:43.645Z,6.23
2019-05-07T10:22:12.588Z,5.67
2019-05-07T10:24:41.932Z,5.77
2019-05-07T10:27:12.479Z,6.00
2019-05-07T10:29:40.017Z,5.33
2019-05-07T10:32:07.835Z,5.70
2019-05-07T10:34:35.726Z,5.50
2019-05-07T10:37:03.750Z,7.57
2019-05-07T10:39:33.895Z,5.57
2019-05-07T10:42:01.953Z,6.83
2019-05-07T10:44:35.411Z,6.80
2019-05-07T10:47:22.289Z,6.70
2019-05-07T10:50:11.792Z,9.70
2019-05-07T10:52:39.525Z,6.73
2019-05-07T10:55:08.135Z,6.03
2019-05-07T10:57:35.818Z,6.80
2019-05-07T11:00:04.703Z,4.50
2019-05-07T11:02:32.631Z,5.87
2019-05-07T11:05:02.334Z,7.80
2019-05-07T11:07:30.054Z,7.53
2019-05-07T11:09:57.872Z,6.63
2019-05-07T11:12:25.595Z,6.13
2019-05-07T11:14:53.367Z,10.37
2019-05-07T11:17:39.271Z,6.53
2019-05-07T11:20:08.092Z,6.27
2019-05-07T11:22:35.817Z,5.30
2019-05-07T11:25:03.846Z,6.93
2019-05-07T11:27:32.990Z,6.47
2019-05-07T11:30:02.710Z,7.00
2019-05-07T11:32:32.134Z,5.63
2019-05-07T11:35:00.312Z,6.20
2019-05-07T11:37:28.233Z,6.93
2019-05-07T11:39:56.008Z,5.53
2019-05-07T11:42:45.121Z,5.57
2019-05-07T11:45:19.095Z,5.83
2019-05-07T11:47:46.898Z,6.97
2019-05-07T11:50:42.139Z,6.73
2019-05-07T11:53:10.757Z,4.97
2019-05-07T11:55:38.646Z,8.13
2019-05-07T11:58:06.360Z,6.40
2019-05-07T12:00:51.967Z,5.40
2019-05-07T12:03:21.974Z,10.70
2019-05-07T12:05:49.595Z,10.77
2019-05-07T12:08:17.518Z,9.97
2019-05-07T12:10:45.299Z,9.13
2019-05-07T12:13:13.176Z,4.93
2019-05-07T12:15:42.786Z,8.37
2019-05-07T12:18:11.878Z,7.10
2019-05-07T12:20:40.010Z,6.10
2019-05-07T12:23:07.744Z,5.57
2019-05-07T12:25:35.575Z,5.60
2019-05-07T12:28:03.532Z,6.87
2019-05-07T12:30:53.975Z,5.93
2019-05-07T12:33:44.061Z,5.67
2019-05-07T12:36:12.720Z,6.90
2019-05-07T12:38:41.735Z,4.90
2019-05-07T12:41:28.028Z,6.27
2019-05-07T12:43:55.752Z,4.90
2019-05-07T12:46:23.714Z,6.20
2019-05-07T12:48:52.369Z,6.37
2019-05-07T12:51:31.645Z,5.37
2019-05-07T12:53:56.148Z,6.30
2019-05-07T12:56:23.930Z,6.70
2019-05-07T12:58:51.857Z,5.80
2019-05-07T13:01:36.574Z,5.40
2019-05-07T13:04:07.233Z,6.63
2019-05-07T13:06:40.208Z,5.33
2019-05-07T13:09:08.257Z,5.33
2019-05-07T13:11:36.009Z,4.97
2019-05-07T13:14:03.985Z,6.37
2019-05-07T13:16:32.422Z,7.37
2019-05-07T13:19:01.925Z,5.67
2019-05-07T13:21:31.786Z,5.93
2019-05-07T13:23:59.367Z,7.27
2019-05-07T13:26:27.326Z,6.50
2019-05-07T13:28:55.082Z,5.90
2019-05-07T13:31:27.503Z,6.67
2019-05-07T13:33:55.925Z,8.07
2019-05-07T13:36:24.502Z,5.87
2019-05-07T13:39:14.819Z,5.63
2019-05-07T13:42:02.127Z,5.63
2019-05-07T13:44:44.662Z,5.80
2019-05-07T13:47:30.017Z,5.70
2019-05-07T13:49:58.432Z,7.67
2019-05-07T13:52:26.319Z,6.13
2019-05-07T13:54:54.831Z,7.93
2019-05-07T13:57:23.184Z,6.73
2019-05-07T13:59:53.031Z,6.40
2019-05-07T14:02:22.899Z,5.53
2019-05-07T14:04:52.653Z,6.07
2019-05-07T14:07:21.762Z,6.53
2019-05-07T14:09:52.496Z,6.73
2019-05-07T14:12:20.008Z,5.30
2019-05-07T14:14:47.854Z,7.80
2019-05-07T14:17:15.557Z,7.83
2019-05-07T14:19:43.309Z,5.87
2019-05-07T14:22:17.898Z,5.97
2019-05-07T14:24:42.260Z,7.40
2019-05-07T14:27:10.155Z,5.93
2019-05-07T14:29:37.916Z,6.10
2019-05-07T14:32:21.193Z,7.57
2019-05-07T14:35:22.566Z,5.53
2019-05-07T14:38:18.822Z,9.10
2019-05-07T14:40:46.760Z,6.33
2019-05-07T14:43:22.014Z,5.73
2019-05-07T14:45:49.849Z,7.07
2019-05-07T14:48:17.796Z,6.13
2019-05-07T14:50:45.791Z,8.30
2019-05-07T14:53:13.802Z,5.93
2019-05-07T14:55:41.964Z,7.63
2019-05-07T14:58:12.240Z,7.70
2019-05-07T15:00:42.744Z,5.33
2019-05-07T15:03:12.469Z,8.87
2019-05-07T15:05:42.253Z,5.47
2019-05-07T15:08:13.522Z,5.60
2019-05-07T15:10:41.840Z,6.83
2019-05-07T15:13:09.980Z,8.90
2019-05-07T15:15:37.971Z,5.30
2019-05-07T15:18:15.781Z,8.03
2019-05-07T15:20:43.107Z,14.93
2019-05-07T15:23:18.956Z,8.33
2019-05-07T15:25:47.746Z,10.63
2019-05-07T15:28:16.246Z,11.30
2019-05-07T15:30:56.483Z,9.80
2019-05-07T15:33:24.406Z,9.40
2019-05-07T15:35:52.383Z,8.93
2019-05-07T15:38:21.706Z,7.73
2019-05-07T15:40:51.927Z,8.03
2019-05-07T15:43:19.985Z,8.47
2019-05-07T15:45:47.765Z,11.73
2019-05-07T15:48:15.484Z,8.73
2019-05-07T15:50:43.381Z,6.93
2019-05-07T15:53:28.236Z,9.13
2019-05-07T15:55:56.930Z,7.43
2019-05-07T15:58:25.160Z,6.63
2019-05-07T16:00:52.964Z,7.30
2019-05-07T16:03:26.147Z,7.67
2019-05-07T16:05:54.308Z,6.93
2019-05-07T16:08:22.919Z,6.87
2019-05-07T16:10:52.960Z,8.70
2019-05-07T16:13:24.779Z,10.20
2019-05-07T16:15:52.956Z,5.80
2019-05-07T16:18:25.429Z,8.17
2019-05-07T16:21:04.949Z,5.90
2019-05-07T16:23:33.112Z,8.33
2019-05-07T16:26:02.408Z,8.37
2019-05-07T16:28:32.432Z,6.70
2019-05-07T16:31:02.428Z,7.40
2019-05-07T16:33:31.993Z,6.10
2019-05-07T16:35:59.593Z,5.83
2019-05-07T16:38:27.413Z,5.47
2019-05-07T16:40:55.360Z,5.97
2019-05-07T16:43:23.554Z,7.90
2019-05-07T16:45:51.847Z,8.83
2019-05-07T16:48:19.694Z,53.40
2019-05-07T16:50:47.488Z,32.00
2019-05-07T16:53:26.560Z,18.30
2019-05-07T16:55:45.424Z,9.13
2019-05-07T16:58:35.786Z,8.43
2019-05-07T17:01:07.041Z,6.80
2019-05-07T17:03:42.689Z,11.73
2019-05-07T17:06:12.394Z,14.90
2019-05-07T17:08:53.996Z,21.93
2019-05-07T17:11:22.632Z,14.07
2019-05-07T17:13:51.915Z,8.07
2019-05-07T17:16:20.148Z,10.33
2019-05-07T17:18:47.947Z,8.53
2019-05-07T17:21:16.469Z,11.33
2019-05-07T17:23:44.855Z,10.93
2019-05-07T17:26:12.848Z,9.33
2019-05-07T17:28:42.549Z,6.80
2019-05-07T17:31:12.413Z,8.03
2019-05-07T17:33:42.453Z,10.23
2019-05-07T17:36:12.130Z,8.23
2019-05-07T17:38:40.162Z,6.97
2019-05-07T17:41:13.074Z,9.73
2019-05-07T17:43:37.718Z,9.77
2019-05-07T17:46:05.454Z,7.07
2019-05-07T17:48:33.715Z,6.37
2019-05-07T17:51:23.852Z,8.17
2019-05-07T17:53:59.752Z,6.37
2019-05-07T17:56:22.475Z,6.50
2019-05-07T17:58:52.226Z,6.83
2019-05-07T18:01:24.733Z,9.40
2019-05-07T18:03:52.527Z,10.87
2019-05-07T18:06:20.544Z,8.50
2019-05-07T18:08:48.316Z,7.37
2019-05-07T18:11:21.206Z,6.50
2019-05-07T18:13:46.543Z,8.00
2019-05-07T18:16:24.971Z,12.60
2019-05-07T18:18:53.449Z,10.47
2019-05-07T18:21:22.045Z,135.47
2019-05-07T18:23:51.753Z,59.13
2019-05-07T18:26:28.062Z,45.27
2019-05-07T18:28:49.451Z,12.70
2019-05-07T18:31:22.015Z,11.63
2019-05-07T18:33:55.715Z,13.50
2019-05-07T18:36:23.582Z,10.67
2019-05-07T18:38:52.869Z,13.53
2019-05-07T18:41:22.333Z,16.27
2019-05-07T18:43:54.382Z,14.00
2019-05-07T18:46:22.056Z,11.03
2019-05-07T18:48:51.824Z,14.07
2019-05-07T18:51:19.772Z,51.27
2019-05-07T18:53:47.734Z,138.10
2019-05-07T18:56:15.452Z,144.07
2019-05-07T18:58:43.275Z,266.67
2019-05-07T19:01:12.412Z,332.50
2019-05-07T19:03:41.961Z,102.20
2019-05-07T19:06:13.456Z,17.57
2019-05-07T19:08:42.210Z,17.23
2019-05-07T19:11:12.259Z,18.33
2019-05-07T19:13:42.040Z,15.97
2019-05-07T19:16:12.511Z,16.63
2019-05-07T19:18:40.078Z,15.17
2019-05-07T19:21:07.937Z,16.20
2019-05-07T19:23:36.338Z,17.43
2019-05-07T19:26:04.503Z,22.53
2019-05-07T19:28:33.012Z,23.57
2019-05-07T19:31:00.993Z,26.50
2019-05-07T19:33:28.727Z,26.93
2019-05-07T19:35:57.016Z,27.57
2019-05-07T19:38:24.744Z,26.27
2019-05-07T19:40:52.885Z,25.13
2019-05-07T19:43:20.862Z,24.37
2019-05-07T19:45:48.856Z,24.63
2019-05-07T19:48:16.571Z,22.90
2019-05-07T19:50:44.860Z,21.50
2019-05-07T19:53:12.931Z,23.70
2019-05-07T19:55:58.728Z,20.03
2019-05-07T19:58:26.580Z,13.60
2019-05-07T20:00:57.216Z,15.17
2019-05-07T20:03:36.554Z,12.03
2019-05-07T20:06:04.741Z,12.40
2019-05-07T20:08:32.931Z,13.07
2019-05-07T20:11:15.855Z,11.57
2019-05-07T20:13:44.894Z,12.07
2019-05-07T20:16:17.057Z,11.43
2019-05-07T20:18:45.474Z,10.70
2019-05-07T20:21:13.868Z,15.10
2019-05-07T20:23:43.220Z,11.87
2019-05-07T20:26:12.577Z,11.43
2019-05-07T20:28:41.757Z,13.33
2019-05-07T20:31:11.646Z,13.33
2019-05-07T20:33:39.505Z,14.37
2019-05-07T20:36:07.392Z,15.23
2019-05-07T20:38:36.933Z,16.70
2019-05-07T20:41:06.682Z,23.03
2019-05-07T20:43:35.562Z,19.07
2019-05-07T20:46:03.545Z,21.40
2019-05-07T20:48:32.437Z,22.27
2019-05-07T20:51:00.759Z,16.10
2019-05-07T20:53:48.072Z,22.73
2019-05-07T20:56:17.299Z,19.27
2019-05-07T20:58:45.730Z,24.10
2019-05-07T21:01:13.509Z,21.90
2019-05-07T21:03:42.908Z,20.13
2019-05-07T21:06:10.916Z,18.17
2019-05-07T21:08:38.638Z,19.77
2019-05-07T21:11:06.609Z,24.63
2019-05-07T21:13:35.054Z,26.00
2019-05-07T21:16:03.432Z,21.67
2019-05-07T21:18:32.690Z,21.33
2019-05-07T21:21:02.118Z,20.30
2019-05-07T21:23:32.424Z,24.43
2019-05-07T21:26:01.954Z,26.93
2019-05-07T21:28:29.661Z,24.57
2019-05-07T21:30:57.530Z,26.80
2019-05-07T21:33:25.258Z,27.70
2019-05-07T21:35:53.038Z,27.00
2019-05-07T21:38:22.331Z,26.60
2019-05-07T21:40:50.543Z,25.33
2019-05-07T21:43:18.327Z,26.73
2019-05-07T21:45:46.261Z,26.87
2019-05-07T21:48:13.978Z,32.93
2019-05-07T21:50:41.858Z,29.30
2019-05-07T21:53:16.708Z,32.63
2019-05-07T21:56:03.047Z,32.50
2019-05-07T21:58:40.822Z,28.20
2019-05-07T22:01:43.415Z,28.50
2019-05-07T22:04:12.490Z,28.73
2019-05-07T22:06:40.012Z,33.57
2019-05-07T22:09:08.430Z,31.07
2019-05-07T22:11:36.475Z,29.63
2019-05-07T22:14:04.517Z,32.43
2019-05-07T22:16:33.020Z,30.70
2019-05-07T22:19:02.631Z,31.20
2019-05-07T22:21:33.893Z,30.60
2019-05-07T22:24:02.645Z,30.00
2019-05-07T22:26:32.020Z,30.10
2019-05-07T22:28:59.664Z,31.77
2019-05-07T22:31:37.246Z,30.73
2019-05-07T22:34:33.791Z,33.23
2019-05-07T22:37:03.284Z,31.27
2019-05-07T22:39:32.744Z,32.63
2019-05-07T22:42:03.764Z,34.33
2019-05-07T22:44:32.247Z,31.40
2019-05-07T22:47:12.369Z,31.97
2019-05-07T22:49:41.992Z,28.27
2019-05-07T22:52:09.729Z,25.67
2019-05-07T22:54:37.450Z,25.77
2019-05-07T22:57:14.032Z,27.53
2019-05-07T22:59:40.587Z,27.93
2019-05-07T23:02:08.421Z,29.63
2019-05-07T23:04:36.195Z,27.83
2019-05-07T23:07:04.045Z,32.30
2019-05-07T23:09:31.814Z,30.27
2019-05-07T23:12:01.746Z,31.43
2019-05-07T23:14:29.215Z,29.37
2019-05-07T23:16:56.950Z,34.30
2019-05-07T23:19:24.720Z,39.20
2019-05-07T23:21:52.451Z,37.43
2019-05-07T23:24:22.582Z,36.90
2019-05-07T23:26:53.309Z,36.50
2019-05-07T23:29:22.557Z,40.17
2019-05-07T23:31:52.952Z,41.70
2019-05-07T23:34:21.955Z,44.07
2019-05-07T23:36:49.640Z,43.20
2019-05-07T23:39:19.448Z,47.90
2019-05-07T23:41:57.626Z,43.47
2019-05-07T23:44:25.469Z,45.83
2019-05-07T23:46:53.276Z,40.50
2019-05-07T23:49:23.250Z,41.43
2019-05-07T23:51:53.054Z,40.13
2019-05-07T23:54:22.972Z,41.47
2019-05-07T23:57:02.907Z,57.10
2019-05-07T23:59:22.177Z,47.47
